Time;durP1;ratioP1;P1;durP2;ratioP2;P2;SDS_P1;SDS_P2;PMS_P1;PMS_P2;Temp;Humidity;BMP_temperature;BMP_pressure;BME280_temperature;BME280_humidity;BME280_pressure;Samples;Min_cycle;Max_cycle;Signal;HPM_P1;HPM_P2
2020/12/27 00:00:29;;;;;;;1.87;1.3;;;4.9;99.9;;;;;;;;;
2020/12/27 00:01:02;;;;;;;1.87;1.3;;;4.9;99.9;;;;;;;;;
2020/12/27 00:02:02;;;;;;;1.6;1.5;;;4.9;99.9;;;;;;;;;
2020/12/27 00:02:42;;;;;;;1.57;1.47;;;4.8;99.9;;;;;;;;;
2020/12/27 00:03:02;;;;;;;1.57;1.47;;;4.8;99.9;;;;;;;;;
2020/12/27 00:03:13;;;;;;;1.57;1.47;;;4.8;99.9;;;;;;;;;
2020/12/27 00:04:03;;;;;;;2.87;1.57;;;4.8;99.9;;;;;;;;;
2020/12/27 00:04:14;;;;;;;2.87;1.57;;;4.8;99.9;;;;;;;;;
2020/12/27 00:04:55;;;;;;;2.03;1.5;;;4.7;99.9;;;;;;;;;
2020/12/27 00:05:02;;;;;;;2.03;1.5;;;4.7;99.9;;;;;;;;;
2020/12/27 00:05:16;;;;;;;2.03;1.5;;;4.7;99.9;;;;;;;;;
2020/12/27 00:05:26;;;;;;;2.03;1.5;;;4.7;99.9;;;;;;;;;
2020/12/27 00:06:02;;;;;;;1.5;1.4;;;4.8;99.9;;;;;;;;;
2020/12/27 00:06:17;;;;;;;1.5;1.4;;;4.8;99.9;;;;;;;;;
2020/12/27 00:06:27;;;;;;;1.5;1.4;;;4.8;99.9;;;;;;;;;
2020/12/27 00:07:02;;;;;;;1.53;1.43;;;4.7;99.9;;;;;;;;;
2020/12/27 00:07:08;;;;;;;1.53;1.43;;;4.7;99.9;;;;;;;;;
2020/12/27 00:07:14;;;;;;;1.53;1.43;;;4.7;99.9;;;;;;;;;
2020/12/27 00:07:29;;;;;;;1.53;1.43;;;4.7;99.9;;;;;;;;;
2020/12/27 00:07:39;;;;;;;1.6;1.47;;;4.8;99.9;;;;;;;;;
2020/12/27 00:08:02;;;;;;;1.6;1.47;;;4.8;99.9;;;;;;;;;
2020/12/27 00:08:15;;;;;;;1.6;1.47;;;4.8;99.9;;;;;;;;;
2020/12/27 00:08:35;;;;;;;1.83;1.63;;;4.8;99.9;;;;;;;;;
2020/12/27 00:08:40;;;;;;;1.83;1.63;;;4.8;99.9;;;;;;;;;
2020/12/27 00:09:03;;;;;;;1.83;1.63;;;4.8;99.9;;;;;;;;;
2020/12/27 00:09:17;;;;;;;1.83;1.63;;;4.8;99.9;;;;;;;;;
2020/12/27 00:09:26;;;;;;;1.83;1.63;;;4.8;99.9;;;;;;;;;
2020/12/27 00:09:42;;;;;;;1.63;1.53;;;4.9;99.9;;;;;;;;;
2020/12/27 00:09:52;;;;;;;1.63;1.53;;;4.9;99.9;;;;;;;;;
2020/12/27 00:10:02;;;;;;;1.63;1.53;;;4.9;99.9;;;;;;;;;
2020/12/27 00:10:12;;;;;;;1.63;1.53;;;4.9;99.9;;;;;;;;;
2020/12/27 00:10:28;;;;;;;1.63;1.53;;;4.9;99.9;;;;;;;;;
2020/12/27 00:10:48;;;;;;;1.6;1.5;;;4.8;99.9;;;;;;;;;
2020/12/27 00:10:53;;;;;;;1.6;1.5;;;4.8;99.9;;;;;;;;;
2020/12/27 00:11:02;;;;;;;1.6;1.5;;;4.8;99.9;;;;;;;;;
2020/12/27 00:11:14;;;;;;;1.6;1.5;;;4.8;99.9;;;;;;;;;
2020/12/27 00:11:29;;;;;;;1.6;1.5;;;4.8;99.9;;;;;;;;;
2020/12/27 00:11:40;;;;;;;2.47;1.63;;;4.8;99.9;;;;;;;;;
2020/12/27 00:11:55;;;;;;;2.47;1.63;;;4.8;99.9;;;;;;;;;
2020/12/27 00:12:02;;;;;;;2.47;1.63;;;4.8;99.9;;;;;;;;;
2020/12/27 00:12:05;;;;;;;2.47;1.63;;;4.8;99.9;;;;;;;;;
2020/12/27 00:12:15;;;;;;;2.47;1.63;;;4.8;99.9;;;;;;;;;
2020/12/27 00:12:25;;;;;;;2.47;1.63;;;4.8;99.9;;;;;;;;;
2020/12/27 00:12:41;;;;;;;2.43;1.47;;;4.8;99.9;;;;;;;;;
2020/12/27 00:13:01;;;;;;;2.43;1.47;;;4.8;99.9;;;;;;;;;
2020/12/27 00:13:02;;;;;;;2.43;1.47;;;4.8;99.9;;;;;;;;;
2020/12/27 00:13:07;;;;;;;2.43;1.47;;;4.8;99.9;;;;;;;;;
2020/12/27 00:13:12;;;;;;;2.43;1.47;;;4.8;99.9;;;;;;;;;
2020/12/27 00:13:27;;;;;;;2.43;1.47;;;4.8;99.9;;;;;;;;;
2020/12/27 00:13:42;;;;;;;1.47;1.3;;;4.8;99.9;;;;;;;;;
2020/12/27 00:13:52;;;;;;;1.47;1.3;;;4.8;99.9;;;;;;;;;
2020/12/27 00:14:02;;;;;;;1.47;1.3;;;4.8;99.9;;;;;;;;;
2020/12/27 00:14:08;;;;;;;1.47;1.3;;;4.8;99.9;;;;;;;;;
2020/12/27 00:14:13;;;;;;;1.47;1.3;;;4.8;99.9;;;;;;;;;
2020/12/27 00:14:28;;;;;;;1.47;1.3;;;4.8;99.9;;;;;;;;;
2020/12/27 00:14:39;;;;;;;1.5;1.4;;;4.9;99.9;;;;;;;;;
2020/12/27 00:14:54;;;;;;;1.5;1.4;;;4.9;99.9;;;;;;;;;
2020/12/27 00:15:02;;;;;;;1.5;1.4;;;4.9;99.9;;;;;;;;;
2020/12/27 00:15:14;;;;;;;1.5;1.4;;;4.9;99.9;;;;;;;;;
2020/12/27 00:15:14;;;;;;;1.5;1.4;;;4.9;99.9;;;;;;;;;
2020/12/27 00:15:25;;;;;;;1.5;1.4;;;4.9;99.9;;;;;;;;;
2020/12/27 00:15:40;;;;;;;1.3;1.2;;;4.9;99.9;;;;;;;;;
2020/12/27 00:15:55;;;;;;;1.3;1.2;;;4.9;99.9;;;;;;;;;
2020/12/27 00:16:02;;;;;;;1.3;1.2;;;4.9;99.9;;;;;;;;;
2020/12/27 00:16:06;;;;;;;1.3;1.2;;;4.9;99.9;;;;;;;;;
2020/12/27 00:16:16;;;;;;;1.3;1.2;;;4.9;99.9;;;;;;;;;
2020/12/27 00:16:26;;;;;;;1.3;1.2;;;4.9;99.9;;;;;;;;;
2020/12/27 00:16:41;;;;;;;1.1;1.03;;;4.9;99.9;;;;;;;;;
2020/12/27 00:16:52;;;;;;;1.1;1.03;;;4.9;99.9;;;;;;;;;
2020/12/27 00:17:02;;;;;;;1.1;1.03;;;4.9;99.9;;;;;;;;;
2020/12/27 00:17:07;;;;;;;1.1;1.03;;;4.9;99.9;;;;;;;;;
2020/12/27 00:17:12;;;;;;;1.1;1.03;;;4.9;99.9;;;;;;;;;
2020/12/27 00:17:27;;;;;;;1.1;1.03;;;4.9;99.9;;;;;;;;;
2020/12/27 00:17:38;;;;;;;2.17;1.47;;;4.9;99.9;;;;;;;;;
2020/12/27 00:17:53;;;;;;;2.17;1.47;;;4.9;99.9;;;;;;;;;
2020/12/27 00:18:02;;;;;;;2.17;1.47;;;4.9;99.9;;;;;;;;;
2020/12/27 00:18:09;;;;;;;2.17;1.47;;;4.9;99.9;;;;;;;;;
2020/12/27 00:18:14;;;;;;;2.17;1.47;;;4.9;99.9;;;;;;;;;
2020/12/27 00:18:34;;;;;;;1.67;1.57;;;4.9;99.9;;;;;;;;;
2020/12/27 00:18:40;;;;;;;1.67;1.57;;;4.9;99.9;;;;;;;;;
2020/12/27 00:18:55;;;;;;;1.67;1.57;;;4.9;99.9;;;;;;;;;
2020/12/27 00:19:01;;;;;;;1.67;1.57;;;4.9;99.9;;;;;;;;;
2020/12/27 00:19:05;;;;;;;1.67;1.57;;;4.9;99.9;;;;;;;;;
2020/12/27 00:19:15;;;;;;;1.67;1.57;;;4.9;99.9;;;;;;;;;
2020/12/27 00:19:25;;;;;;;1.67;1.57;;;4.9;99.9;;;;;;;;;
2020/12/27 00:19:41;;;;;;;2;1.5;;;4.9;99.9;;;;;;;;;
2020/12/27 00:19:51;;;;;;;2;1.5;;;4.9;99.9;;;;;;;;;
2020/12/27 00:20:04;;;;;;;2;1.5;;;4.9;99.9;;;;;;;;;
2020/12/27 00:20:06;;;;;;;2;1.5;;;4.9;99.9;;;;;;;;;
2020/12/27 00:20:17;;;;;;;2;1.5;;;4.9;99.9;;;;;;;;;
2020/12/27 00:20:27;;;;;;;2;1.5;;;4.9;99.9;;;;;;;;;
2020/12/27 00:20:47;;;;;;;2.47;1.67;;;4.9;99.9;;;;;;;;;
2020/12/27 00:20:52;;;;;;;2.47;1.67;;;4.9;99.9;;;;;;;;;
2020/12/27 00:21:01;;;;;;;2.47;1.67;;;4.9;99.9;;;;;;;;;
2020/12/27 00:21:08;;;;;;;2.47;1.67;;;4.9;99.9;;;;;;;;;
2020/12/27 00:21:13;;;;;;;2.47;1.67;;;4.9;99.9;;;;;;;;;
2020/12/27 00:21:28;;;;;;;2.47;1.67;;;4.9;99.9;;;;;;;;;
2020/12/27 00:21:38;;;;;;;1.5;1.4;;;4.9;99.9;;;;;;;;;
2020/12/27 00:21:54;;;;;;;1.5;1.4;;;4.9;99.9;;;;;;;;;
2020/12/27 00:22:02;;;;;;;1.5;1.4;;;4.9;99.9;;;;;;;;;
2020/12/27 00:22:04;;;;;;;1.5;1.4;;;4.9;99.9;;;;;;;;;
2020/12/27 00:22:20;;;;;;;1.5;1.4;;;4.9;99.9;;;;;;;;;
2020/12/27 00:22:30;;;;;;;1.5;1.4;;;4.9;99.9;;;;;;;;;
2020/12/27 00:22:40;;;;;;;2.4;1.53;;;4.9;99.9;;;;;;;;;
2020/12/27 00:23:00;;;;;;;2.4;1.53;;;4.9;99.9;;;;;;;;;
2020/12/27 00:23:02;;;;;;;2.4;1.53;;;4.9;99.9;;;;;;;;;
2020/12/27 00:23:06;;;;;;;2.4;1.53;;;4.9;99.9;;;;;;;;;
2020/12/27 00:23:16;;;;;;;2.4;1.53;;;4.9;99.9;;;;;;;;;
2020/12/27 00:23:26;;;;;;;2.4;1.53;;;4.9;99.9;;;;;;;;;
2020/12/27 00:23:41;;;;;;;1.37;1.23;;;4.9;99.9;;;;;;;;;
2020/12/27 00:23:52;;;;;;;1.37;1.23;;;4.9;99.9;;;;;;;;;
2020/12/27 00:24:01;;;;;;;1.37;1.23;;;4.9;99.9;;;;;;;;;
2020/12/27 00:24:07;;;;;;;1.37;1.23;;;4.9;99.9;;;;;;;;;
2020/12/27 00:24:12;;;;;;;1.37;1.23;;;4.9;99.9;;;;;;;;;
2020/12/27 00:24:33;;;;;;;1.37;1.23;;;4.9;99.9;;;;;;;;;
2020/12/27 00:24:43;;;;;;;3.33;1.5;;;4.9;99.9;;;;;;;;;
2020/12/27 00:24:53;;;;;;;3.33;1.5;;;4.9;99.9;;;;;;;;;
2020/12/27 00:25:02;;;;;;;3.33;1.5;;;4.9;99.9;;;;;;;;;
2020/12/27 00:25:13;;;;;;;3.33;1.5;;;4.9;99.9;;;;;;;;;
2020/12/27 00:25:13;;;;;;;3.33;1.5;;;4.9;99.9;;;;;;;;;
2020/12/27 00:25:29;;;;;;;3.33;1.5;;;4.9;99.9;;;;;;;;;
2020/12/27 00:25:39;;;;;;;1.73;1.63;;;4.9;99.9;;;;;;;;;
2020/12/27 00:25:54;;;;;;;1.73;1.63;;;4.9;99.9;;;;;;;;;
2020/12/27 00:26:02;;;;;;;1.73;1.63;;;4.9;99.9;;;;;;;;;
2020/12/27 00:26:05;;;;;;;1.73;1.63;;;4.9;99.9;;;;;;;;;
2020/12/27 00:26:17;;;;;;;1.73;1.63;;;4.9;99.9;;;;;;;;;
2020/12/27 00:26:25;;;;;;;1.73;1.63;;;4.9;99.9;;;;;;;;;
2020/12/27 00:26:46;;;;;;;1.63;1.2;;;4.8;99.9;;;;;;;;;
2020/12/27 00:26:56;;;;;;;1.63;1.2;;;4.8;99.9;;;;;;;;;
2020/12/27 00:27:02;;;;;;;1.63;1.2;;;4.8;99.9;;;;;;;;;
2020/12/27 00:27:06;;;;;;;1.63;1.2;;;4.8;99.9;;;;;;;;;
2020/12/27 00:27:16;;;;;;;1.63;1.2;;;4.8;99.9;;;;;;;;;
2020/12/27 00:27:27;;;;;;;1.63;1.2;;;4.8;99.9;;;;;;;;;
2020/12/27 00:27:42;;;;;;;1.37;1.1;;;4.7;99.9;;;;;;;;;
2020/12/27 00:27:52;;;;;;;1.37;1.1;;;4.7;99.9;;;;;;;;;
2020/12/27 00:28:02;;;;;;;1.37;1.1;;;4.7;99.9;;;;;;;;;
2020/12/27 00:28:08;;;;;;;1.37;1.1;;;4.7;99.9;;;;;;;;;
2020/12/27 00:28:23;;;;;;;1.37;1.1;;;4.7;99.9;;;;;;;;;
2020/12/27 00:28:28;;;;;;;1.37;1.1;;;4.7;99.9;;;;;;;;;
2020/12/27 00:28:38;;;;;;;1.6;1.5;;;4.8;99.9;;;;;;;;;
2020/12/27 00:28:59;;;;;;;1.6;1.5;;;4.8;99.9;;;;;;;;;
2020/12/27 00:29:02;;;;;;;1.6;1.5;;;4.8;99.9;;;;;;;;;
2020/12/27 00:29:09;;;;;;;1.6;1.5;;;4.8;99.9;;;;;;;;;
2020/12/27 00:29:15;;;;;;;1.6;1.5;;;4.8;99.9;;;;;;;;;
2020/12/27 00:29:30;;;;;;;1.6;1.5;;;4.8;99.9;;;;;;;;;
2020/12/27 00:29:40;;;;;;;1.87;1.57;;;4.8;99.9;;;;;;;;;
2020/12/27 00:29:55;;;;;;;1.87;1.57;;;4.8;99.9;;;;;;;;;
2020/12/27 00:30:02;;;;;;;1.87;1.57;;;4.8;99.9;;;;;;;;;
2020/12/27 00:30:05;;;;;;;1.87;1.57;;;4.8;99.9;;;;;;;;;
2020/12/27 00:30:16;;;;;;;1.87;1.57;;;4.8;99.9;;;;;;;;;
2020/12/27 00:30:36;;;;;;;1.9;1.7;;;4.7;99.9;;;;;;;;;
2020/12/27 00:30:41;;;;;;;1.9;1.7;;;4.7;99.9;;;;;;;;;
2020/12/27 00:30:51;;;;;;;1.9;1.7;;;4.7;99.9;;;;;;;;;
2020/12/27 00:31:01;;;;;;;1.9;1.7;;;4.7;99.9;;;;;;;;;
2020/12/27 00:31:12;;;;;;;1.9;1.7;;;4.7;99.9;;;;;;;;;
2020/12/27 00:31:13;;;;;;;1.9;1.7;;;4.7;99.9;;;;;;;;;
2020/12/27 00:31:27;;;;;;;1.9;1.7;;;4.7;99.9;;;;;;;;;
2020/12/27 00:31:43;;;;;;;2.2;1.83;;;4.7;99.9;;;;;;;;;
2020/12/27 00:31:53;;;;;;;2.2;1.83;;;4.7;99.9;;;;;;;;;
2020/12/27 00:32:02;;;;;;;2.2;1.83;;;4.7;99.9;;;;;;;;;
2020/12/27 00:32:08;;;;;;;2.2;1.83;;;4.7;99.9;;;;;;;;;
2020/12/27 00:32:13;;;;;;;2.2;1.83;;;4.7;99.9;;;;;;;;;
2020/12/27 00:32:29;;;;;;;2.2;1.83;;;4.7;99.9;;;;;;;;;
2020/12/27 00:32:49;;;;;;;1.5;1.4;;;4.8;99.9;;;;;;;;;
2020/12/27 00:32:54;;;;;;;1.5;1.4;;;4.8;99.9;;;;;;;;;
2020/12/27 00:33:02;;;;;;;1.5;1.4;;;4.8;99.9;;;;;;;;;
2020/12/27 00:33:04;;;;;;;1.5;1.4;;;4.8;99.9;;;;;;;;;
2020/12/27 00:33:15;;;;;;;1.5;1.4;;;4.8;99.9;;;;;;;;;
2020/12/27 00:33:30;;;;;;;1.5;1.4;;;4.8;99.9;;;;;;;;;
2020/12/27 00:33:40;;;;;;;1.4;1.3;;;4.8;99.9;;;;;;;;;
2020/12/27 00:33:56;;;;;;;1.4;1.3;;;4.8;99.9;;;;;;;;;
2020/12/27 00:34:02;;;;;;;1.4;1.3;;;4.8;99.9;;;;;;;;;
2020/12/27 00:34:06;;;;;;;1.4;1.3;;;4.8;99.9;;;;;;;;;
2020/12/27 00:34:16;;;;;;;1.4;1.3;;;4.8;99.9;;;;;;;;;
2020/12/27 00:34:26;;;;;;;1.4;1.3;;;4.8;99.9;;;;;;;;;
2020/12/27 00:34:42;;;;;;;1.37;1.2;;;4.9;99.9;;;;;;;;;
2020/12/27 00:35:02;;;;;;;1.37;1.2;;;4.9;99.9;;;;;;;;;
2020/12/27 00:35:02;;;;;;;1.37;1.2;;;4.9;99.9;;;;;;;;;
2020/12/27 00:35:07;;;;;;;1.37;1.2;;;4.9;99.9;;;;;;;;;
2020/12/27 00:35:13;;;;;;;1.37;1.2;;;4.9;99.9;;;;;;;;;
2020/12/27 00:35:28;;;;;;;1.37;1.2;;;4.9;99.9;;;;;;;;;
2020/12/27 00:35:43;;;;;;;1.3;1.2;;;4.8;99.9;;;;;;;;;
2020/12/27 00:35:53;;;;;;;1.3;1.2;;;4.8;99.9;;;;;;;;;
2020/12/27 00:36:01;;;;;;;1.3;1.2;;;4.8;99.9;;;;;;;;;
2020/12/27 00:36:09;;;;;;;1.3;1.2;;;4.8;99.9;;;;;;;;;
2020/12/27 00:36:14;;;;;;;1.3;1.2;;;4.8;99.9;;;;;;;;;
2020/12/27 00:36:29;;;;;;;1.3;1.2;;;4.8;99.9;;;;;;;;;
2020/12/27 00:36:40;;;;;;;2.47;1.5;;;4.9;99.9;;;;;;;;;
2020/12/27 00:36:55;;;;;;;2.47;1.5;;;4.9;99.9;;;;;;;;;
2020/12/27 00:37:02;;;;;;;2.47;1.5;;;4.9;99.9;;;;;;;;;
2020/12/27 00:37:16;;;;;;;2.47;1.5;;;4.9;99.9;;;;;;;;;
2020/12/27 00:37:16;;;;;;;2.47;1.5;;;4.9;99.9;;;;;;;;;
2020/12/27 00:37:27;;;;;;;2.47;1.5;;;4.9;99.9;;;;;;;;;
2020/12/27 00:37:41;;;;;;;1.87;1.27;;;4.9;99.9;;;;;;;;;
2020/12/27 00:37:56;;;;;;;1.87;1.27;;;4.9;99.9;;;;;;;;;
2020/12/27 00:38:02;;;;;;;1.87;1.27;;;4.9;99.9;;;;;;;;;
2020/12/27 00:38:07;;;;;;;1.87;1.27;;;4.9;99.9;;;;;;;;;
2020/12/27 00:38:12;;;;;;;1.87;1.27;;;4.9;99.9;;;;;;;;;
2020/12/27 00:38:32;;;;;;;1.87;1.27;;;4.9;99.9;;;;;;;;;
2020/12/27 00:38:42;;;;;;;2.03;1.33;;;4.9;99.9;;;;;;;;;
2020/12/27 00:38:53;;;;;;;2.03;1.33;;;4.9;99.9;;;;;;;;;
2020/12/27 00:39:06;;;;;;;2.03;1.33;;;4.9;99.9;;;;;;;;;
2020/12/27 00:39:08;;;;;;;2.03;1.33;;;4.9;99.9;;;;;;;;;
2020/12/27 00:39:13;;;;;;;2.03;1.33;;;4.9;99.9;;;;;;;;;
2020/12/27 00:39:29;;;;;;;2.03;1.33;;;4.9;99.9;;;;;;;;;
2020/12/27 00:39:44;;;;;;;1.5;1.4;;;4.9;99.9;;;;;;;;;
2020/12/27 00:39:54;;;;;;;1.5;1.4;;;4.9;99.9;;;;;;;;;
2020/12/27 00:40:02;;;;;;;1.5;1.4;;;4.9;99.9;;;;;;;;;
2020/12/27 00:40:11;;;;;;;1.5;1.4;;;4.9;99.9;;;;;;;;;
2020/12/27 00:40:15;;;;;;;1.5;1.4;;;4.9;99.9;;;;;;;;;
2020/12/27 00:40:25;;;;;;;1.5;1.4;;;4.9;99.9;;;;;;;;;
2020/12/27 00:40:45;;;;;;;2.03;1.4;;;4.9;99.9;;;;;;;;;
2020/12/27 00:40:56;;;;;;;2.03;1.4;;;4.9;99.9;;;;;;;;;
2020/12/27 00:41:01;;;;;;;2.03;1.4;;;4.9;99.9;;;;;;;;;
2020/12/27 00:41:06;;;;;;;2.03;1.4;;;4.9;99.9;;;;;;;;;
2020/12/27 00:41:16;;;;;;;2.03;1.4;;;4.9;99.9;;;;;;;;;
2020/12/27 00:41:26;;;;;;;2.03;1.4;;;4.9;99.9;;;;;;;;;
2020/12/27 00:41:42;;;;;;;1.6;1.5;;;4.8;99.9;;;;;;;;;
2020/12/27 00:41:57;;;;;;;1.6;1.5;;;4.8;99.9;;;;;;;;;
2020/12/27 00:42:02;;;;;;;1.6;1.5;;;4.8;99.9;;;;;;;;;
2020/12/27 00:42:07;;;;;;;1.6;1.5;;;4.8;99.9;;;;;;;;;
2020/12/27 00:42:13;;;;;;;1.6;1.5;;;4.8;99.9;;;;;;;;;
2020/12/27 00:42:28;;;;;;;1.6;1.5;;;4.8;99.9;;;;;;;;;
2020/12/27 00:42:38;;;;;;;1.6;1.5;;;4.8;99.9;;;;;;;;;
2020/12/27 00:42:58;;;;;;;1.33;1.23;;;4.9;99.9;;;;;;;;;
2020/12/27 00:43:05;;;;;;;1.33;1.23;;;4.9;99.9;;;;;;;;;
2020/12/27 00:43:09;;;;;;;1.33;1.23;;;4.9;99.9;;;;;;;;;
2020/12/27 00:43:14;;;;;;;1.33;1.23;;;4.9;99.9;;;;;;;;;
2020/12/27 00:43:34;;;;;;;1.33;1.23;;;4.9;99.9;;;;;;;;;
2020/12/27 00:43:40;;;;;;;1.33;1.23;;;4.9;99.9;;;;;;;;;
2020/12/27 00:43:55;;;;;;;1.2;1.1;;;4.8;99.9;;;;;;;;;
2020/12/27 00:44:02;;;;;;;1.2;1.1;;;4.8;99.9;;;;;;;;;
2020/12/27 00:44:10;;;;;;;1.2;1.1;;;4.8;99.9;;;;;;;;;
2020/12/27 00:44:15;;;;;;;1.2;1.1;;;4.8;99.9;;;;;;;;;
2020/12/27 00:44:25;;;;;;;1.2;1.1;;;4.8;99.9;;;;;;;;;
2020/12/27 00:44:41;;;;;;;1.4;1.3;;;4.8;99.9;;;;;;;;;
2020/12/27 00:44:51;;;;;;;1.4;1.3;;;4.8;99.9;;;;;;;;;
2020/12/27 00:45:02;;;;;;;1.4;1.3;;;4.8;99.9;;;;;;;;;
2020/12/27 00:45:12;;;;;;;1.4;1.3;;;4.8;99.9;;;;;;;;;
2020/12/27 00:45:17;;;;;;;1.4;1.3;;;4.8;99.9;;;;;;;;;
2020/12/27 00:45:27;;;;;;;1.4;1.3;;;4.8;99.9;;;;;;;;;
2020/12/27 00:45:47;;;;;;;1.8;1.43;;;4.9;99.9;;;;;;;;;
2020/12/27 00:45:53;;;;;;;1.8;1.43;;;4.9;99.9;;;;;;;;;
2020/12/27 00:46:01;;;;;;;1.8;1.43;;;4.9;99.9;;;;;;;;;
2020/12/27 00:46:08;;;;;;;1.8;1.43;;;4.9;99.9;;;;;;;;;
2020/12/27 00:46:13;;;;;;;1.8;1.43;;;4.9;99.9;;;;;;;;;
2020/12/27 00:46:28;;;;;;;1.8;1.43;;;4.9;99.9;;;;;;;;;
2020/12/27 00:46:39;;;;;;;1.8;1.43;;;4.9;99.9;;;;;;;;;
2020/12/27 00:46:54;;;;;;;1.13;1.1;;;4.9;99.9;;;;;;;;;
2020/12/27 00:47:02;;;;;;;1.13;1.1;;;4.9;99.9;;;;;;;;;
2020/12/27 00:47:04;;;;;;;1.13;1.1;;;4.9;99.9;;;;;;;;;
2020/12/27 00:47:15;;;;;;;1.13;1.1;;;4.9;99.9;;;;;;;;;
2020/12/27 00:47:30;;;;;;;1.13;1.1;;;4.9;99.9;;;;;;;;;
2020/12/27 00:47:40;;;;;;;1.13;1.1;;;4.9;99.9;;;;;;;;;
2020/12/27 00:48:01;;;;;;;1.3;1.2;;;4.8;99.9;;;;;;;;;
2020/12/27 00:48:01;;;;;;;1.3;1.2;;;4.8;99.9;;;;;;;;;
2020/12/27 00:48:06;;;;;;;1.3;1.2;;;4.8;99.9;;;;;;;;;
2020/12/27 00:48:16;;;;;;;1.3;1.2;;;4.8;99.9;;;;;;;;;
2020/12/27 00:48:26;;;;;;;1.3;1.2;;;4.8;99.9;;;;;;;;;
2020/12/27 00:48:42;;;;;;;1.77;1.43;;;4.8;99.9;;;;;;;;;
2020/12/27 00:48:52;;;;;;;1.77;1.43;;;4.8;99.9;;;;;;;;;
2020/12/27 00:49:02;;;;;;;1.77;1.43;;;4.8;99.9;;;;;;;;;
2020/12/27 00:49:07;;;;;;;1.77;1.43;;;4.8;99.9;;;;;;;;;
2020/12/27 00:49:12;;;;;;;1.77;1.43;;;4.8;99.9;;;;;;;;;
2020/12/27 00:49:28;;;;;;;1.77;1.43;;;4.8;99.9;;;;;;;;;
2020/12/27 00:49:43;;;;;;;2.83;1.4;;;4.8;99.9;;;;;;;;;
2020/12/27 00:49:53;;;;;;;2.83;1.4;;;4.8;99.9;;;;;;;;;
2020/12/27 00:50:02;;;;;;;2.83;1.4;;;4.8;99.9;;;;;;;;;
2020/12/27 00:50:14;;;;;;;2.83;1.4;;;4.8;99.9;;;;;;;;;
2020/12/27 00:50:14;;;;;;;2.83;1.4;;;4.8;99.9;;;;;;;;;
2020/12/27 00:50:29;;;;;;;2.83;1.4;;;4.8;99.9;;;;;;;;;
2020/12/27 00:50:39;;;;;;;2.83;1.4;;;4.8;99.9;;;;;;;;;
2020/12/27 00:50:55;;;;;;;1.93;1.4;;;4.8;99.9;;;;;;;;;
2020/12/27 00:51:01;;;;;;;1.93;1.4;;;4.8;99.9;;;;;;;;;
2020/12/27 00:51:05;;;;;;;1.93;1.4;;;4.8;99.9;;;;;;;;;
2020/12/27 00:51:15;;;;;;;1.93;1.4;;;4.8;99.9;;;;;;;;;
2020/12/27 00:51:25;;;;;;;1.93;1.4;;;4.8;99.9;;;;;;;;;
2020/12/27 00:51:41;;;;;;;1.93;1.4;;;4.8;99.9;;;;;;;;;
2020/12/27 00:51:56;;;;;;;1.67;1.53;;;4.9;99.9;;;;;;;;;
2020/12/27 00:52:02;;;;;;;1.67;1.53;;;4.9;99.9;;;;;;;;;
2020/12/27 00:52:06;;;;;;;1.67;1.53;;;4.9;99.9;;;;;;;;;
2020/12/27 00:52:17;;;;;;;1.67;1.53;;;4.9;99.9;;;;;;;;;
2020/12/27 00:52:27;;;;;;;1.67;1.53;;;4.9;99.9;;;;;;;;;
2020/12/27 00:52:42;;;;;;;1.67;1.53;;;4.9;99.9;;;;;;;;;
2020/12/27 00:52:52;;;;;;;1.53;1.43;;;5;99.9;;;;;;;;;
2020/12/27 00:53:01;;;;;;;1.53;1.43;;;5;99.9;;;;;;;;;
2020/12/27 00:53:08;;;;;;;1.53;1.43;;;5;99.9;;;;;;;;;
2020/12/27 00:53:13;;;;;;;1.53;1.43;;;5;99.9;;;;;;;;;
2020/12/27 00:53:33;;;;;;;1.53;1.43;;;5;99.9;;;;;;;;;
2020/12/27 00:53:39;;;;;;;1.53;1.43;;;5;99.9;;;;;;;;;
2020/12/27 00:53:54;;;;;;;1.3;1.2;;;4.9;99.9;;;;;;;;;
2020/12/27 00:54:02;;;;;;;1.3;1.2;;;4.9;99.9;;;;;;;;;
2020/12/27 00:54:09;;;;;;;1.3;1.2;;;4.9;99.9;;;;;;;;;
2020/12/27 00:54:14;;;;;;;1.3;1.2;;;4.9;99.9;;;;;;;;;
2020/12/27 00:54:30;;;;;;;1.3;1.2;;;4.9;99.9;;;;;;;;;
2020/12/27 00:54:40;;;;;;;1.3;1.2;;;4.9;99.9;;;;;;;;;
2020/12/27 00:54:55;;;;;;;2.5;1.3;;;4.9;99.9;;;;;;;;;
2020/12/27 00:55:02;;;;;;;2.5;1.3;;;4.9;99.9;;;;;;;;;
2020/12/27 00:55:06;;;;;;;2.5;1.3;;;4.9;99.9;;;;;;;;;
2020/12/27 00:55:16;;;;;;;2.5;1.3;;;4.9;99.9;;;;;;;;;
2020/12/27 00:55:26;;;;;;;2.5;1.3;;;4.9;99.9;;;;;;;;;
2020/12/27 00:55:46;;;;;;;1.63;1.2;;;4.9;99.9;;;;;;;;;
2020/12/27 00:55:54;;;;;;;1.63;1.2;;;4.9;99.9;;;;;;;;;
2020/12/27 00:56:01;;;;;;;1.63;1.2;;;4.9;99.9;;;;;;;;;
2020/12/27 00:56:07;;;;;;;1.63;1.2;;;4.9;99.9;;;;;;;;;
2020/12/27 00:56:12;;;;;;;1.63;1.2;;;4.9;99.9;;;;;;;;;
2020/12/27 00:56:28;;;;;;;1.63;1.2;;;4.9;99.9;;;;;;;;;
2020/12/27 00:56:43;;;;;;;1.63;1.2;;;4.9;99.9;;;;;;;;;
2020/12/27 00:56:53;;;;;;;1.1;1;;;4.9;99.9;;;;;;;;;
2020/12/27 00:57:02;;;;;;;1.1;1;;;4.9;99.9;;;;;;;;;
2020/12/27 00:57:08;;;;;;;1.1;1;;;4.9;99.9;;;;;;;;;
2020/12/27 00:57:13;;;;;;;1.1;1;;;4.9;99.9;;;;;;;;;
2020/12/27 00:57:29;;;;;;;1.1;1;;;4.9;99.9;;;;;;;;;
2020/12/27 00:57:39;;;;;;;1.1;1;;;4.9;99.9;;;;;;;;;
2020/12/27 00:58:00;;;;;;;1.7;1.5;;;4.9;99.9;;;;;;;;;
2020/12/27 00:58:02;;;;;;;1.7;1.5;;;4.9;99.9;;;;;;;;;
2020/12/27 00:58:05;;;;;;;1.7;1.5;;;4.9;99.9;;;;;;;;;
2020/12/27 00:58:15;;;;;;;1.7;1.5;;;4.9;99.9;;;;;;;;;
2020/12/27 00:58:26;;;;;;;1.7;1.5;;;4.9;99.9;;;;;;;;;
2020/12/27 00:58:43;;;;;;;1.7;1.5;;;4.9;99.9;;;;;;;;;
2020/12/27 00:59:01;;;;;;;2.2;1.4;;;4.9;99.9;;;;;;;;;
2020/12/27 00:59:02;;;;;;;2.2;1.4;;;4.9;99.9;;;;;;;;;
2020/12/27 00:59:06;;;;;;;2.2;1.4;;;4.9;99.9;;;;;;;;;
2020/12/27 00:59:16;;;;;;;2.2;1.4;;;4.9;99.9;;;;;;;;;
2020/12/27 00:59:27;;;;;;;2.2;1.4;;;4.9;99.9;;;;;;;;;
2020/12/27 00:59:42;;;;;;;2.2;1.4;;;4.9;99.9;;;;;;;;;
2020/12/27 00:59:52;;;;;;;1.4;1.2;;;4.8;99.9;;;;;;;;;
2020/12/27 01:00:02;;;;;;;1.4;1.2;;;4.8;99.9;;;;;;;;;
2020/12/27 01:00:13;;;;;;;1.4;1.2;;;4.8;99.9;;;;;;;;;
2020/12/27 01:00:13;;;;;;;1.4;1.2;;;4.8;99.9;;;;;;;;;
2020/12/27 01:00:28;;;;;;;1.4;1.2;;;4.8;99.9;;;;;;;;;
2020/12/27 01:00:38;;;;;;;1.4;1.2;;;4.8;99.9;;;;;;;;;
2020/12/27 01:00:54;;;;;;;1.3;1.17;;;4.8;99.9;;;;;;;;;
2020/12/27 01:01:02;;;;;;;1.3;1.17;;;4.8;99.9;;;;;;;;;
2020/12/27 01:01:14;;;;;;;1.3;1.17;;;4.8;99.9;;;;;;;;;
2020/12/27 01:01:14;;;;;;;1.3;1.17;;;4.8;99.9;;;;;;;;;
2020/12/27 01:01:30;;;;;;;1.3;1.17;;;4.8;99.9;;;;;;;;;
2020/12/27 01:01:40;;;;;;;1.3;1.17;;;4.8;99.9;;;;;;;;;
2020/12/27 01:01:55;;;;;;;1.07;1.07;;;4.9;99.9;;;;;;;;;
2020/12/27 01:02:02;;;;;;;1.07;1.07;;;4.9;99.9;;;;;;;;;
2020/12/27 01:02:05;;;;;;;1.07;1.07;;;4.9;99.9;;;;;;;;;
2020/12/27 01:02:16;;;;;;;1.07;1.07;;;4.9;99.9;;;;;;;;;
2020/12/27 01:02:26;;;;;;;1.07;1.07;;;4.9;99.9;;;;;;;;;
2020/12/27 01:02:41;;;;;;;1.07;1.07;;;4.9;99.9;;;;;;;;;
2020/12/27 01:02:51;;;;;;;1.63;1.23;;;4.9;99.9;;;;;;;;;
2020/12/27 01:03:01;;;;;;;1.63;1.23;;;4.9;99.9;;;;;;;;;
2020/12/27 01:03:07;;;;;;;1.63;1.23;;;4.9;99.9;;;;;;;;;
2020/12/27 01:03:17;;;;;;;1.63;1.23;;;4.9;99.9;;;;;;;;;
2020/12/27 01:03:27;;;;;;;1.63;1.23;;;4.9;99.9;;;;;;;;;
2020/12/27 01:03:43;;;;;;;1.63;1.23;;;4.9;99.9;;;;;;;;;
2020/12/27 01:03:53;;;;;;;1.3;1.2;;;4.9;99.9;;;;;;;;;
2020/12/27 01:04:02;;;;;;;1.3;1.2;;;4.9;99.9;;;;;;;;;
2020/12/27 01:04:08;;;;;;;1.3;1.2;;;4.9;99.9;;;;;;;;;
2020/12/27 01:04:13;;;;;;;1.3;1.2;;;4.9;99.9;;;;;;;;;
2020/12/27 01:04:29;;;;;;;1.3;1.2;;;4.9;99.9;;;;;;;;;
2020/12/27 01:04:39;;;;;;;1.3;1.2;;;4.9;99.9;;;;;;;;;
2020/12/27 01:04:54;;;;;;;1.47;0.9;;;4.9;99.9;;;;;;;;;
2020/12/27 01:05:02;;;;;;;1.47;0.9;;;4.9;99.9;;;;;;;;;
2020/12/27 01:05:05;;;;;;;1.47;0.9;;;4.9;99.9;;;;;;;;;
2020/12/27 01:05:15;;;;;;;1.47;0.9;;;4.9;99.9;;;;;;;;;
2020/12/27 01:05:30;;;;;;;1.47;0.9;;;4.9;99.9;;;;;;;;;
2020/12/27 01:05:40;;;;;;;1.47;0.9;;;4.9;99.9;;;;;;;;;
2020/12/27 01:05:56;;;;;;;1.3;1.2;;;5;99.9;;;;;;;;;
2020/12/27 01:06:01;;;;;;;1.3;1.2;;;5;99.9;;;;;;;;;
2020/12/27 01:06:06;;;;;;;1.3;1.2;;;5;99.9;;;;;;;;;
2020/12/27 01:06:16;;;;;;;1.3;1.2;;;5;99.9;;;;;;;;;
2020/12/27 01:06:27;;;;;;;1.3;1.2;;;5;99.9;;;;;;;;;
2020/12/27 01:06:42;;;;;;;1.3;1.2;;;5;99.9;;;;;;;;;
2020/12/27 01:06:52;;;;;;;1.03;0.93;;;5;99.9;;;;;;;;;
2020/12/27 01:07:02;;;;;;;1.03;0.93;;;5;99.9;;;;;;;;;
2020/12/27 01:07:07;;;;;;;1.03;0.93;;;5;99.9;;;;;;;;;
2020/12/27 01:07:13;;;;;;;1.03;0.93;;;5;99.9;;;;;;;;;
2020/12/27 01:07:28;;;;;;;1.03;0.93;;;5;99.9;;;;;;;;;
2020/12/27 01:07:43;;;;;;;1.03;0.93;;;5;99.9;;;;;;;;;
2020/12/27 01:07:53;;;;;;;1.33;1.2;;;5;99.9;;;;;;;;;
2020/12/27 01:08:01;;;;;;;1.33;1.2;;;5;99.9;;;;;;;;;
2020/12/27 01:08:09;;;;;;;1.33;1.2;;;5;99.9;;;;;;;;;
2020/12/27 01:08:14;;;;;;;1.33;1.2;;;5;99.9;;;;;;;;;
2020/12/27 01:08:34;;;;;;;1.33;1.2;;;5;99.9;;;;;;;;;
2020/12/27 01:08:40;;;;;;;1.33;1.2;;;5;99.9;;;;;;;;;
2020/12/27 01:09:00;;;;;;;1.83;0.87;;;5;99.9;;;;;;;;;
2020/12/27 01:09:02;;;;;;;1.83;0.87;;;5;99.9;;;;;;;;;
2020/12/27 01:09:05;;;;;;;1.83;0.87;;;5;99.9;;;;;;;;;
2020/12/27 01:09:15;;;;;;;1.83;0.87;;;5;99.9;;;;;;;;;
2020/12/27 01:09:26;;;;;;;1.83;0.87;;;5;99.9;;;;;;;;;
2020/12/27 01:09:41;;;;;;;1.83;0.87;;;5;99.9;;;;;;;;;
2020/12/27 01:09:57;;;;;;;1.53;1.07;;;5;99.9;;;;;;;;;
2020/12/27 01:10:02;;;;;;;1.53;1.07;;;5;99.9;;;;;;;;;
2020/12/27 01:10:07;;;;;;;1.53;1.07;;;5;99.9;;;;;;;;;
2020/12/27 01:10:12;;;;;;;1.53;1.07;;;5;99.9;;;;;;;;;
2020/12/27 01:10:27;;;;;;;1.53;1.07;;;5;99.9;;;;;;;;;
2020/12/27 01:10:48;;;;;;;1.93;1.63;;;5;99.9;;;;;;;;;
2020/12/27 01:10:53;;;;;;;1.93;1.63;;;5;99.9;;;;;;;;;
2020/12/27 01:11:02;;;;;;;1.93;1.63;;;5;99.9;;;;;;;;;
2020/12/27 01:11:13;;;;;;;1.93;1.63;;;5;99.9;;;;;;;;;
2020/12/27 01:11:13;;;;;;;1.93;1.63;;;5;99.9;;;;;;;;;
2020/12/27 01:11:28;;;;;;;1.93;1.63;;;5;99.9;;;;;;;;;
2020/12/27 01:11:39;;;;;;;1.93;1.63;;;5;99.9;;;;;;;;;
2020/12/27 01:11:54;;;;;;;0.9;0.9;;;5;99.9;;;;;;;;;
2020/12/27 01:12:02;;;;;;;0.9;0.9;;;5;99.9;;;;;;;;;
2020/12/27 01:12:09;;;;;;;0.9;0.9;;;5;99.9;;;;;;;;;
2020/12/27 01:12:16;;;;;;;0.9;0.9;;;5;99.9;;;;;;;;;
2020/12/27 01:12:25;;;;;;;0.9;0.9;;;5;99.9;;;;;;;;;
2020/12/27 01:12:40;;;;;;;0.9;0.9;;;5;99.9;;;;;;;;;
2020/12/27 01:13:01;;;;;;;1.1;1;;;5;99.9;;;;;;;;;
2020/12/27 01:13:01;;;;;;;1.1;1;;;5;99.9;;;;;;;;;
2020/12/27 01:13:06;;;;;;;1.1;1;;;5;99.9;;;;;;;;;
2020/12/27 01:13:16;;;;;;;1.1;1;;;5;99.9;;;;;;;;;
2020/12/27 01:13:26;;;;;;;1.1;1;;;5;99.9;;;;;;;;;
2020/12/27 01:13:42;;;;;;;1.1;1;;;5;99.9;;;;;;;;;
2020/12/27 01:13:52;;;;;;;1.57;1.27;;;5;99.9;;;;;;;;;
2020/12/27 01:14:02;;;;;;;1.57;1.27;;;5;99.9;;;;;;;;;
2020/12/27 01:14:07;;;;;;;1.57;1.27;;;5;99.9;;;;;;;;;
2020/12/27 01:14:12;;;;;;;1.57;1.27;;;5;99.9;;;;;;;;;
2020/12/27 01:14:28;;;;;;;1.57;1.27;;;5;99.9;;;;;;;;;
2020/12/27 01:14:38;;;;;;;1.57;1.27;;;5;99.9;;;;;;;;;
2020/12/27 01:14:53;;;;;;;1.3;1.2;;;5;99.9;;;;;;;;;
2020/12/27 01:15:02;;;;;;;1.3;1.2;;;5;99.9;;;;;;;;;
2020/12/27 01:15:14;;;;;;;1.3;1.2;;;5;99.9;;;;;;;;;
2020/12/27 01:15:14;;;;;;;1.3;1.2;;;5;99.9;;;;;;;;;
2020/12/27 01:15:29;;;;;;;1.3;1.2;;;5;99.9;;;;;;;;;
2020/12/27 01:15:39;;;;;;;1.3;1.2;;;5;99.9;;;;;;;;;
2020/12/27 01:15:55;;;;;;;1.77;1.3;;;4.9;99.9;;;;;;;;;
2020/12/27 01:16:01;;;;;;;1.77;1.3;;;4.9;99.9;;;;;;;;;
2020/12/27 01:16:05;;;;;;;1.77;1.3;;;4.9;99.9;;;;;;;;;
2020/12/27 01:16:18;;;;;;;1.77;1.3;;;4.9;99.9;;;;;;;;;
2020/12/27 01:16:26;;;;;;;1.77;1.3;;;4.9;99.9;;;;;;;;;
2020/12/27 01:16:41;;;;;;;1.77;1.3;;;4.9;99.9;;;;;;;;;
2020/12/27 01:16:51;;;;;;;1.4;1.27;;;4.9;99.9;;;;;;;;;
2020/12/27 01:17:02;;;;;;;1.4;1.27;;;4.9;99.9;;;;;;;;;
2020/12/27 01:17:06;;;;;;;1.4;1.27;;;4.9;99.9;;;;;;;;;
2020/12/27 01:17:17;;;;;;;1.4;1.27;;;4.9;99.9;;;;;;;;;
2020/12/27 01:17:27;;;;;;;1.4;1.27;;;4.9;99.9;;;;;;;;;
2020/12/27 01:17:42;;;;;;;1.4;1.27;;;4.9;99.9;;;;;;;;;
2020/12/27 01:17:53;;;;;;;1.47;1.37;;;5;99.9;;;;;;;;;